CYEK

Arviat Airport

Arviat, Canada
METAR CYEK 192000Z 17012KT 15SM FEW035 FEW280 09/04 A3007 RMK CU1CI1 SLP184
Observed Flight Rules
Jun-19 @ 20:00 UTC (14 minutes ago) Visual Flight Rules
Wind Visibility Clouds
170° at 12 knots 15 miles
  • Few at 3,500' AGL
  • Few at 28,000' AGL
Temperatures Readings
Current 9°C / 48°F
Dewpoint 4°C / 39°F
Humidity 71%
Altimeter 30.07" Hg
Pressure 1018.4 hPa
Elevation 10
METAR CYEK 192000Z 17012KT 15SM FEW035 FEW280 09/04 A3007 RMK CU1CI1 SLP184
Observed Flight Rules
Jun-19 @ 20:00 UTC
(14 minutes ago)
VFR
Wind Visibility
170° at 12 knots 15 miles
Clouds
  • Few at 3,500' AGL
  • Few at 28,000' AGL
Temperature Dewpoint
9°C / 48°F 4°C / 39°F
Humidity Altimeter Pressure
71% 30.07" Hg 1018.4 hPa